Vagabond — WDD3483 — position and weather

sailwx.info

Track history (hours):
 
Tides and Currents Weather Stations Pressure Air Temp Water Temp Dewpoint Dewpoint Depression Visibility Wind Speed Wind Dir Waves Ship Positions

Vagabond

More information available from US FCC via Universal Licensing System and Coast Guard Vessel Documentation Center.

Last reported at 2014-Jul-13 22:10 UTC. Time now 2014-Jul-22 19:53 UTC.
Position N 47°43' W 122°27'.
Warning: this ship's position is 8 days out of date.

Length 27 m.

Type: Pleasure craft. MMSI: 367132020.

Date/timePositionNaut miles runAvg speedWind from/ knotsBaromVisibWave heightAir tempDewpointWater temp
2014-Jul-13 22:10N 47°43' W 122°27'115.0
2014-Jul-13 22:07N 47°44' W 122°26'1119.9
2014-Jul-13 21:33N 47°55' W 122°30'3323.6
2014-Jul-13 20:09N 48°23' W 122°55'1016.3
2014-Jul-13 19:33N 48°33' W 122°59'8 1.5
2014-Jul-13 14:12N 48°37' W 123°09'0 0.0
2014-Jul-13 11:30N 48°37' W 123°09'0 0.0
2014-Jul-13 04:30N 48°37' W 123°09'0 0.0
2014-Jul-13 03:30N 48°37' W 123°09'0 0.0
2014-Jul-13 02:06N 48°37' W 123°09'0 0.0
2014-Jul-12 22:18N 48°37' W 123°09'1 0.7
2014-Jul-12 21:24N 48°36' W 123°10'1112.8
2014-Jul-12 20:33N 48°26' W 123°04'3919.7
2014-Jul-12 18:33N 47°55' W 122°28'1419.5
2014-Jul-12 17:51N 47°41' W 122°27'4 0.2
2014-Jul-11 14:02N 47°38' W 122°23'0 0.0
2014-Jul-10 23:29N 47°38' W 122°23'0 1.3
2014-Jul-10 23:26N 47°38' W 122°23'2 2.6
2014-Jul-10 22:31N 47°40' W 122°24'0 0.0
2014-Jul-10 22:31N 47°40' W 122°24'2 1.1
2014-Jul-10 20:10N 47°39' W 122°21'0 0.0
2014-Jul-10 20:10N 47°39' W 122°21'4 5.3
2014-Jul-10 19:29N 47°38' W 122°16'2 0.2
2014-Jul-10 09:10N 47°37' W 122°13'0 0.0
2014-Jul-10 08:10N 47°37' W 122°13'0 0.0
2014-Jul-10 06:10N 47°37' W 122°13'5 1.4
2014-Jul-10 02:33N 47°38' W 122°20'0 6.2
2014-Jul-10 02:30N 47°38' W 122°20'5 1.3
2014-Jul-09 22:44N 47°37' W 122°13'0 0.0
2014-Jul-09 22:14N 47°37' W 122°13'0 0.0
2014-Jul-09 21:14N 47°37' W 122°13'1 0.7
2014-Jul-09 20:04N 47°36' W 122°14'5 7.7
2014-Jul-09 19:22N 47°39' W 122°21'1 6.2
2014-Jul-09 19:13N 47°39' W 122°22'1 1.2
2014-Jul-09 18:32N 47°40' W 122°23'0 0.0
2014-Jul-09 18:29N 47°40' W 122°23'0 0.4
2014-Jul-09 17:24N 47°40' W 122°24'0 0.5
2014-Jul-09 17:14N 47°40' W 122°24'1 1.8
2014-Jul-09 16:34N 47°40' W 122°25'010.9
2014-Jul-09 16:33N 47°40' W 122°26'  
2014-Jul-06 22:34N 47°38' W 122°24'214.6
2014-Jul-06 22:24N 47°39' W 122°26'1619.3
2014-Jul-06 21:33N 47°55' W 122°30'4120.0
2014-Jul-06 19:30N 48°27' W 123°08'9 0.4
2014-Jul-05 20:22N 48°33' W 123°18'1113.7
2014-Jul-05 19:33N 48°23' W 123°21'3 0.1
2014-Jul-04 20:06N 48°25' W 123°23'610.7
2014-Jul-04 19:33N 48°21' W 123°16'  
Track history (hours):
 
Tides and Currents Weather Stations Pressure Air Temp Water Temp Dewpoint Dewpoint Depression Visibility Wind Speed Wind Dir Waves Ship Positions

Vagabond

More information available from US FCC via Universal Licensing System and Coast Guard Vessel Documentation Center.

Last reported at 2014-Jul-13 22:10 UTC. Time now 2014-Jul-22 19:53 UTC.
Position N 47°43' W 122°27'.
Warning: this ship's position is 8 days out of date.

Length 27 m.

Type: Pleasure craft. MMSI: 367132020.

Date/timePositionNaut miles runAvg speedWind from/ knotsBaromVisibWave heightAir tempDewpointWater temp
2014-Jul-13 22:10N 47°43' W 122°27'115.0
2014-Jul-13 22:07N 47°44' W 122°26'1119.9
2014-Jul-13 21:33N 47°55' W 122°30'3323.6
2014-Jul-13 20:09N 48°23' W 122°55'1016.3
2014-Jul-13 19:33N 48°33' W 122°59'8 1.5
2014-Jul-13 14:12N 48°37' W 123°09'0 0.0
2014-Jul-13 11:30N 48°37' W 123°09'0 0.0
2014-Jul-13 04:30N 48°37' W 123°09'0 0.0
2014-Jul-13 03:30N 48°37' W 123°09'0 0.0
2014-Jul-13 02:06N 48°37' W 123°09'0 0.0
2014-Jul-12 22:18N 48°37' W 123°09'1 0.7
2014-Jul-12 21:24N 48°36' W 123°10'1112.8
2014-Jul-12 20:33N 48°26' W 123°04'3919.7
2014-Jul-12 18:33N 47°55' W 122°28'1419.5
2014-Jul-12 17:51N 47°41' W 122°27'4 0.2
2014-Jul-11 14:02N 47°38' W 122°23'0 0.0
2014-Jul-10 23:29N 47°38' W 122°23'0 1.3
2014-Jul-10 23:26N 47°38' W 122°23'2 2.6
2014-Jul-10 22:31N 47°40' W 122°24'0 0.0
2014-Jul-10 22:31N 47°40' W 122°24'2 1.1
2014-Jul-10 20:10N 47°39' W 122°21'0 0.0
2014-Jul-10 20:10N 47°39' W 122°21'4 5.3
2014-Jul-10 19:29N 47°38' W 122°16'2 0.2
2014-Jul-10 09:10N 47°37' W 122°13'0 0.0
2014-Jul-10 08:10N 47°37' W 122°13'0 0.0
2014-Jul-10 06:10N 47°37' W 122°13'5 1.4
2014-Jul-10 02:33N 47°38' W 122°20'0 6.2
2014-Jul-10 02:30N 47°38' W 122°20'5 1.3
2014-Jul-09 22:44N 47°37' W 122°13'0 0.0
2014-Jul-09 22:14N 47°37' W 122°13'0 0.0
2014-Jul-09 21:14N 47°37' W 122°13'1 0.7
2014-Jul-09 20:04N 47°36' W 122°14'5 7.7
2014-Jul-09 19:22N 47°39' W 122°21'1 6.2
2014-Jul-09 19:13N 47°39' W 122°22'1 1.2
2014-Jul-09 18:32N 47°40' W 122°23'0 0.0
2014-Jul-09 18:29N 47°40' W 122°23'0 0.4
2014-Jul-09 17:24N 47°40' W 122°24'0 0.5
2014-Jul-09 17:14N 47°40' W 122°24'1 1.8
2014-Jul-09 16:34N 47°40' W 122°25'010.9
2014-Jul-09 16:33N 47°40' W 122°26'  
2014-Jul-06 22:34N 47°38' W 122°24'214.6
2014-Jul-06 22:24N 47°39' W 122°26'1619.3
2014-Jul-06 21:33N 47°55' W 122°30'4120.0
2014-Jul-06 19:30N 48°27' W 123°08'9 0.4
2014-Jul-05 20:22N 48°33' W 123°18'1113.7
2014-Jul-05 19:33N 48°23' W 123°21'3 0.1
2014-Jul-04 20:06N 48°25' W 123°23'610.7
2014-Jul-04 19:33N 48°21' W 123°16'  

Dump ship's entire track history